createdAt,value
2022-09-16T00:00:58.802Z,45.11
2022-09-16T00:03:26.815Z,44.75
2022-09-16T00:05:56.054Z,44.75
2022-09-16T00:08:24.394Z,44.89
2022-09-16T00:10:52.397Z,44.96
2022-09-16T00:13:20.740Z,45.02
2022-09-16T00:15:51.296Z,44.67
2022-09-16T00:18:20.405Z,44.62
2022-09-16T00:20:50.035Z,44.53
2022-09-16T00:23:20.487Z,44.45
2022-09-16T00:25:51.873Z,44.76
2022-09-16T00:28:20.105Z,44.89
2022-09-16T00:30:47.972Z,44.93
2022-09-16T00:33:16.303Z,44.55
2022-09-16T00:35:44.161Z,44.55
2022-09-16T00:38:12.034Z,44.67
2022-09-16T00:40:46.933Z,44.81
2022-09-16T00:43:16.153Z,44.49
2022-09-16T00:45:47.863Z,44.66
2022-09-16T00:48:22.279Z,44.50
2022-09-16T00:50:53.262Z,44.53
2022-09-16T00:53:26.422Z,44.53
2022-09-16T00:55:57.506Z,44.63
2022-09-16T00:58:33.412Z,44.75
2022-09-16T01:01:01.766Z,44.44
2022-09-16T01:03:31.453Z,44.72
2022-09-16T01:05:59.563Z,44.71
2022-09-16T01:08:27.573Z,44.68
2022-09-16T01:10:57.972Z,44.60
2022-09-16T01:13:25.944Z,44.29
2022-09-16T01:16:04.230Z,44.36
2022-09-16T01:18:40.244Z,44.33
2022-09-16T01:21:19.295Z,44.28
2022-09-16T01:24:08.393Z,44.33
2022-09-16T01:27:00.647Z,44.29
2022-09-16T01:29:46.286Z,44.47
2022-09-16T01:32:19.972Z,44.16
2022-09-16T01:34:54.651Z,44.29
2022-09-16T01:37:30.201Z,44.31
2022-09-16T01:40:09.308Z,44.04
2022-09-16T01:42:47.537Z,44.46
2022-09-16T01:45:21.985Z,44.08
2022-09-16T01:48:01.211Z,44.33
2022-09-16T01:50:34.521Z,44.48
2022-09-16T01:53:13.701Z,44.34
2022-09-16T01:55:49.111Z,44.14
2022-09-16T01:58:22.817Z,44.36
2022-09-16T02:00:55.042Z,44.03
2022-09-16T02:03:28.044Z,44.09
2022-09-16T02:06:00.123Z,44.02
2022-09-16T02:08:32.455Z,44.11
2022-09-16T02:11:02.935Z,44.07
2022-09-16T02:13:35.628Z,44.47
2022-09-16T02:16:08.234Z,44.27
2022-09-16T02:18:42.613Z,43.90
2022-09-16T02:21:15.393Z,43.92
2022-09-16T02:23:48.021Z,44.02
2022-09-16T02:26:18.786Z,43.94
2022-09-16T02:28:49.387Z,44.24
2022-09-16T02:31:18.740Z,44.26
2022-09-16T02:33:54.721Z,43.88
2022-09-16T02:36:24.776Z,44.12
2022-09-16T02:38:57.711Z,44.18
2022-09-16T02:41:25.701Z,43.88
2022-09-16T02:43:54.055Z,43.99
2022-09-16T02:46:31.133Z,43.92
2022-09-16T02:49:10.830Z,43.83
2022-09-16T02:51:47.193Z,44.18
2022-09-16T02:54:23.488Z,44.26
2022-09-16T02:56:51.512Z,44.35
2022-09-16T02:59:19.564Z,43.99
2022-09-16T03:01:49.047Z,44.18
2022-09-16T03:04:20.560Z,44.29
2022-09-16T03:06:49.170Z,44.48
2022-09-16T03:09:19.349Z,44.11
2022-09-16T03:12:12.252Z,44.19
2022-09-16T03:14:53.095Z,44.13
2022-09-16T03:17:35.216Z,44.17
2022-09-16T03:20:15.514Z,44.44
2022-09-16T03:22:52.409Z,44.07
2022-09-16T03:25:30.559Z,44.11
2022-09-16T03:28:07.902Z,44.45
2022-09-16T03:30:43.743Z,44.52
2022-09-16T03:33:21.881Z,44.25
2022-09-16T03:35:53.735Z,44.34
2022-09-16T03:38:22.386Z,44.16
2022-09-16T03:40:50.610Z,44.17
2022-09-16T03:43:19.126Z,44.38
2022-09-16T03:45:47.058Z,44.03
2022-09-16T03:48:15.296Z,44.40
2022-09-16T03:50:43.148Z,44.53
2022-09-16T03:53:12.409Z,44.11
2022-09-16T03:55:40.265Z,44.49
2022-09-16T03:58:08.183Z,44.56
2022-09-16T04:00:37.032Z,44.50
2022-09-16T04:03:04.983Z,44.09
2022-09-16T04:05:32.872Z,44.11
2022-09-16T04:08:00.798Z,44.54
2022-09-16T04:10:30.052Z,44.56
2022-09-16T04:12:59.279Z,44.49
2022-09-16T04:15:27.521Z,44.31
2022-09-16T04:17:56.222Z,44.52
2022-09-16T04:20:24.914Z,44.72
2022-09-16T04:22:53.388Z,44.76
2022-09-16T04:25:21.234Z,44.43
2022-09-16T04:27:50.567Z,44.65
2022-09-16T04:30:18.777Z,44.70
2022-09-16T04:32:46.650Z,44.70
2022-09-16T04:35:14.581Z,44.92
2022-09-16T04:37:42.488Z,44.88
2022-09-16T04:40:10.864Z,44.64
2022-09-16T04:42:38.957Z,44.59
2022-09-16T04:45:09.533Z,44.80
2022-09-16T04:47:37.388Z,44.46
2022-09-16T04:50:06.557Z,44.44
2022-09-16T04:52:34.449Z,44.87
2022-09-16T04:55:02.304Z,44.48
2022-09-16T04:57:31.993Z,44.64
2022-09-16T05:00:00.075Z,44.84
2022-09-16T05:02:30.253Z,44.76
2022-09-16T05:04:58.245Z,44.44
2022-09-16T05:07:26.112Z,44.68
2022-09-16T05:09:53.977Z,44.50
2022-09-16T05:12:22.204Z,44.80
2022-09-16T05:14:50.108Z,44.53
2022-09-16T05:17:33.385Z,44.29
2022-09-16T05:20:08.163Z,44.32
2022-09-16T05:22:36.061Z,44.77
2022-09-16T05:25:04.450Z,44.79
2022-09-16T05:27:32.340Z,44.44
2022-09-16T05:30:00.192Z,44.54
2022-09-16T05:32:28.212Z,44.70
2022-09-16T05:34:56.283Z,44.50
2022-09-16T05:37:25.538Z,44.55
2022-09-16T05:39:54.065Z,44.48
2022-09-16T05:42:22.060Z,44.49
2022-09-16T05:44:49.917Z,44.73
2022-09-16T05:47:17.821Z,44.66
2022-09-16T05:49:45.749Z,44.35
2022-09-16T05:52:13.609Z,44.64
2022-09-16T05:54:42.822Z,44.67
2022-09-16T05:57:10.733Z,44.35
2022-09-16T05:59:39.402Z,44.53
2022-09-16T06:02:07.606Z,44.16
2022-09-16T06:04:35.689Z,44.24
2022-09-16T06:07:03.684Z,44.22
2022-09-16T06:09:31.612Z,44.50
2022-09-16T06:12:02.145Z,44.18
2022-09-16T06:14:30.411Z,44.45
2022-09-16T06:16:58.325Z,44.04
2022-09-16T06:19:26.191Z,44.09
2022-09-16T06:21:54.065Z,44.01
2022-09-16T06:24:22.480Z,43.90
2022-09-16T06:26:50.766Z,44.12
2022-09-16T06:29:20.143Z,44.46
2022-09-16T06:31:47.991Z,44.06
2022-09-16T06:34:19.120Z,44.34
2022-09-16T06:36:47.204Z,44.15
2022-09-16T06:39:17.019Z,44.07
2022-09-16T06:41:46.000Z,43.99
2022-09-16T06:44:13.922Z,44.36
2022-09-16T06:46:44.212Z,44.36
2022-09-16T06:49:13.107Z,44.48
2022-09-16T06:51:41.065Z,44.07
2022-09-16T06:54:09.853Z,44.47
2022-09-16T06:56:39.569Z,44.60
2022-09-16T06:59:07.952Z,44.70
2022-09-16T07:01:37.471Z,44.95
2022-09-16T07:04:10.525Z,44.97
2022-09-16T07:07:07.484Z,44.99
2022-09-16T07:09:27.290Z,44.87
2022-09-16T07:11:55.253Z,44.81
2022-09-16T07:14:23.757Z,44.84
2022-09-16T07:16:51.761Z,44.52
2022-09-16T07:19:21.150Z,44.70
2022-09-16T07:21:49.185Z,44.54
2022-09-16T07:24:17.073Z,44.56
2022-09-16T07:26:45.810Z,44.19
2022-09-16T07:29:17.200Z,44.32
2022-09-16T07:31:45.535Z,44.04
2022-09-16T07:34:14.642Z,44.27
2022-09-16T07:36:45.896Z,43.83
2022-09-16T07:39:15.903Z,44.02
2022-09-16T07:41:45.029Z,44.09
2022-09-16T07:44:14.752Z,43.99
2022-09-16T07:46:42.985Z,44.02
2022-09-16T07:49:13.617Z,44.06
2022-09-16T07:51:42.990Z,43.84
2022-09-16T07:54:13.252Z,43.99
2022-09-16T07:56:42.115Z,43.84
2022-09-16T07:59:15.925Z,43.77
2022-09-16T08:01:46.831Z,43.77
2022-09-16T08:04:15.047Z,43.46
2022-09-16T08:06:44.356Z,43.70
2022-09-16T08:09:38.728Z,43.77
2022-09-16T08:12:02.664Z,43.26
2022-09-16T08:14:30.606Z,43.52
2022-09-16T08:16:59.064Z,43.35
2022-09-16T08:19:27.032Z,43.47
2022-09-16T08:21:56.279Z,43.13
2022-09-16T08:24:24.178Z,43.54
2022-09-16T08:26:52.208Z,43.15
2022-09-16T08:29:22.433Z,43.14
2022-09-16T08:31:50.344Z,43.35
2022-09-16T08:34:18.399Z,43.37
2022-09-16T08:36:46.268Z,43.11
2022-09-16T08:39:16.004Z,43.12
2022-09-16T08:42:05.848Z,43.40
2022-09-16T08:44:43.297Z,43.69
2022-09-16T08:47:31.333Z,44.28
2022-09-16T08:50:02.302Z,45.04
2022-09-16T08:52:32.722Z,45.78
2022-09-16T08:55:07.886Z,46.27
2022-09-16T08:57:40.801Z,46.01
2022-09-16T09:00:14.685Z,45.71
2022-09-16T09:02:48.567Z,45.67
2022-09-16T09:05:21.751Z,45.47
2022-09-16T09:08:01.140Z,45.12
2022-09-16T09:10:41.045Z,44.65
2022-09-16T09:13:19.611Z,44.70
2022-09-16T09:15:56.152Z,44.38
2022-09-16T09:18:40.920Z,43.92
2022-09-16T09:21:24.475Z,43.93
2022-09-16T09:24:08.929Z,43.96
2022-09-16T09:26:48.121Z,43.70
2022-09-16T09:29:33.914Z,43.77
2022-09-16T09:32:15.453Z,43.57
2022-09-16T09:34:57.601Z,43.64
2022-09-16T09:37:39.005Z,43.48
2022-09-16T09:40:14.767Z,43.33
2022-09-16T09:42:49.895Z,43.50
2022-09-16T09:45:22.892Z,43.69
2022-09-16T09:47:55.183Z,43.75
2022-09-16T09:50:27.102Z,43.55
2022-09-16T09:53:02.392Z,43.80
2022-09-16T09:55:34.890Z,43.45
2022-09-16T09:58:20.629Z,43.44
2022-09-16T10:00:48.939Z,43.49
2022-09-16T10:03:19.396Z,43.32
2022-09-16T10:05:48.911Z,43.27
2022-09-16T10:08:24.568Z,42.82
2022-09-16T10:10:54.442Z,43.18
2022-09-16T10:13:25.617Z,43.06
2022-09-16T10:15:55.974Z,42.92
2022-09-16T10:18:29.793Z,43.05
2022-09-16T10:21:05.219Z,42.96
2022-09-16T10:23:34.737Z,43.08
2022-09-16T10:26:09.044Z,43.33
2022-09-16T10:28:39.459Z,43.01
2022-09-16T10:31:08.691Z,42.96
2022-09-16T10:33:42.317Z,42.94
2022-09-16T10:36:18.561Z,42.66
2022-09-16T10:38:50.553Z,42.70
2022-09-16T10:41:21.060Z,42.41
2022-09-16T10:43:54.502Z,42.13
2022-09-16T10:46:22.403Z,42.28
2022-09-16T10:48:54.229Z,42.07
2022-09-16T10:51:24.617Z,42.23
2022-09-16T10:53:55.106Z,41.95
2022-09-16T10:56:29.363Z,41.85
2022-09-16T10:59:06.502Z,42.04
2022-09-16T11:01:47.085Z,41.74
2022-09-16T11:04:43.448Z,41.30
2022-09-16T11:07:21.269Z,41.35
2022-09-16T11:09:59.324Z,41.22
2022-09-16T11:12:52.725Z,41.54
2022-09-16T11:15:33.265Z,41.50
2022-09-16T11:18:14.895Z,42.01
2022-09-16T11:21:06.404Z,42.06
2022-09-16T11:23:47.957Z,42.25
2022-09-16T11:26:22.526Z,42.63
2022-09-16T11:29:13.025Z,42.69
2022-09-16T11:31:52.123Z,42.59
2022-09-16T11:34:34.163Z,42.67
2022-09-16T11:37:10.307Z,42.63
2022-09-16T11:39:50.726Z,42.48
2022-09-16T11:42:27.467Z,42.42
2022-09-16T11:45:02.960Z,42.50
2022-09-16T11:47:47.997Z,42.69
2022-09-16T11:50:29.424Z,42.52
2022-09-16T11:53:26.906Z,42.60
2022-09-16T11:56:00.840Z,42.46
2022-09-16T11:58:36.276Z,42.26
2022-09-16T12:01:13.678Z,42.70
2022-09-16T12:03:49.507Z,42.30
2022-09-16T12:06:24.214Z,42.53
2022-09-16T12:08:58.345Z,42.60
2022-09-16T12:11:33.154Z,42.54
2022-09-16T12:14:10.120Z,42.61
2022-09-16T12:16:44.510Z,42.52
2022-09-16T12:19:20.984Z,42.51
2022-09-16T12:21:57.743Z,42.48
2022-09-16T12:24:33.717Z,41.97
2022-09-16T12:27:07.109Z,41.87
2022-09-16T12:29:42.008Z,42.12
2022-09-16T12:32:16.018Z,42.13
2022-09-16T12:34:50.404Z,41.85
2022-09-16T12:37:31.010Z,41.89
2022-09-16T12:39:58.999Z,41.86
2022-09-16T12:43:10.253Z,41.83
2022-09-16T12:46:05.503Z,41.97
2022-09-16T12:48:53.674Z,41.68
2022-09-16T12:51:37.759Z,41.76
2022-09-16T12:54:51.134Z,41.93
2022-09-16T12:57:41.833Z,41.81
2022-09-16T13:00:16.082Z,41.86
2022-09-16T13:02:48.293Z,41.73
2022-09-16T13:05:26.253Z,41.98
2022-09-16T13:08:01.713Z,42.31
2022-09-16T13:10:55.883Z,42.36
2022-09-16T13:13:31.458Z,42.29
2022-09-16T13:16:01.984Z,41.66
2022-09-16T13:18:43.720Z,42.06
2022-09-16T13:21:24.849Z,42.11
2022-09-16T13:24:03.997Z,41.93
2022-09-16T13:26:41.064Z,41.79
2022-09-16T13:29:44.195Z,41.88
2022-09-16T13:32:29.429Z,41.79
2022-09-16T13:35:05.832Z,42.10
2022-09-16T13:37:33.828Z,42.02
2022-09-16T13:40:22.184Z,41.87
2022-09-16T13:42:50.237Z,42.09
2022-09-16T13:45:36.024Z,42.13
2022-09-16T13:48:17.337Z,42.07
2022-09-16T13:50:50.394Z,42.03
2022-09-16T13:53:34.072Z,42.33
2022-09-16T13:56:16.597Z,42.27
2022-09-16T13:58:54.596Z,42.23
2022-09-16T14:01:37.047Z,42.51
2022-09-16T14:04:27.380Z,42.59
2022-09-16T14:07:07.858Z,41.99
2022-09-16T14:09:49.449Z,42.13
2022-09-16T14:12:28.161Z,42.25
2022-09-16T14:14:59.463Z,42.37
2022-09-16T14:17:33.252Z,42.12
2022-09-16T14:20:02.166Z,42.18
2022-09-16T14:22:31.689Z,42.06
2022-09-16T14:25:06.231Z,41.77
2022-09-16T14:27:43.717Z,41.90
2022-09-16T14:30:17.962Z,42.09
2022-09-16T14:32:47.168Z,41.89
2022-09-16T14:35:20.060Z,41.77
2022-09-16T14:37:51.425Z,41.88
2022-09-16T14:40:23.271Z,41.88
2022-09-16T14:42:55.398Z,41.85
2022-09-16T14:45:23.974Z,42.15
2022-09-16T14:47:55.156Z,41.99
2022-09-16T14:50:26.305Z,42.14
2022-09-16T14:52:55.769Z,42.00
2022-09-16T14:55:26.698Z,42.30
2022-09-16T14:57:55.984Z,42.52
2022-09-16T15:00:29.203Z,42.23
2022-09-16T15:03:01.633Z,42.63
2022-09-16T15:05:34.438Z,42.40
2022-09-16T15:08:14.522Z,42.44
2022-09-16T15:10:52.340Z,42.48
2022-09-16T15:13:25.482Z,42.52
2022-09-16T15:15:57.169Z,42.64
2022-09-16T15:18:28.634Z,42.71
2022-09-16T15:21:04.258Z,42.80
2022-09-16T15:23:33.809Z,42.87
2022-09-16T15:26:13.208Z,42.96
2022-09-16T15:28:53.132Z,43.02
2022-09-16T15:31:32.554Z,42.95
2022-09-16T15:34:02.152Z,43.00
2022-09-16T15:36:38.966Z,42.98
2022-09-16T15:39:21.850Z,43.14
2022-09-16T15:41:49.879Z,43.20
2022-09-16T15:44:24.386Z,43.22
2022-09-16T15:46:52.503Z,43.48
2022-09-16T15:49:21.204Z,43.38
2022-09-16T15:51:51.436Z,43.64
2022-09-16T15:54:25.249Z,43.46
2022-09-16T15:57:02.231Z,43.53
2022-09-16T15:59:37.429Z,43.53
2022-09-16T16:02:20.589Z,43.68
2022-09-16T16:04:48.753Z,43.76
2022-09-16T16:07:40.740Z,43.52
2022-09-16T16:10:17.517Z,43.54
2022-09-16T16:12:47.905Z,43.93
2022-09-16T16:15:19.696Z,43.85
2022-09-16T16:17:49.501Z,43.92
2022-09-16T16:20:18.985Z,43.99
2022-09-16T16:22:47.020Z,44.06
2022-09-16T16:25:15.237Z,44.07
2022-09-16T16:27:43.227Z,44.12
2022-09-16T16:30:12.206Z,44.03
2022-09-16T16:32:41.510Z,44.47
2022-09-16T16:35:10.209Z,44.34
2022-09-16T16:37:46.556Z,44.06
2022-09-16T16:40:16.199Z,44.56
2022-09-16T16:42:44.455Z,44.17
2022-09-16T16:45:13.234Z,44.35
2022-09-16T16:47:42.595Z,44.29
2022-09-16T16:50:11.196Z,44.19
2022-09-16T16:52:39.186Z,44.34
2022-09-16T16:55:07.889Z,44.46
2022-09-16T16:57:35.777Z,44.47
2022-09-16T17:00:04.407Z,44.63
2022-09-16T17:02:32.422Z,44.81
2022-09-16T17:05:01.750Z,44.39
2022-09-16T17:07:30.103Z,44.41
2022-09-16T17:09:58.609Z,44.47
2022-09-16T17:12:26.831Z,44.27
2022-09-16T17:14:54.697Z,44.18
2022-09-16T17:17:25.275Z,44.08
2022-09-16T17:19:55.704Z,44.16
2022-09-16T17:22:24.976Z,43.95
2022-09-16T17:24:52.860Z,43.93
2022-09-16T17:27:21.921Z,44.10
2022-09-16T17:29:49.890Z,43.85
2022-09-16T17:32:17.793Z,43.89
2022-09-16T17:34:45.840Z,43.84
2022-09-16T17:37:14.597Z,44.13
2022-09-16T17:39:43.906Z,43.72
2022-09-16T17:42:11.800Z,43.61
2022-09-16T17:44:39.764Z,43.75
2022-09-16T17:47:07.680Z,43.63
2022-09-16T17:49:35.526Z,43.88
2022-09-16T17:52:03.876Z,43.79
2022-09-16T17:54:31.766Z,43.85
2022-09-16T17:57:01.094Z,43.74
2022-09-16T17:59:29.032Z,43.73
2022-09-16T18:01:57.229Z,43.41
2022-09-16T18:04:25.364Z,43.15
2022-09-16T18:06:53.304Z,43.50
2022-09-16T18:09:21.267Z,43.13
2022-09-16T18:11:49.457Z,43.46
2022-09-16T18:14:23.140Z,43.15
2022-09-16T18:16:51.954Z,43.23
2022-09-16T18:19:20.139Z,43.03
2022-09-16T18:21:48.112Z,43.48
2022-09-16T18:24:16.251Z,42.90
2022-09-16T18:26:44.697Z,43.02
2022-09-16T18:29:14.381Z,43.08
2022-09-16T18:31:45.863Z,42.99
2022-09-16T18:34:15.371Z,42.92
2022-09-16T18:36:43.583Z,42.82
2022-09-16T18:39:16.865Z,43.08
2022-09-16T18:41:48.153Z,43.07
2022-09-16T18:44:19.621Z,43.12
2022-09-16T18:46:49.415Z,43.04
2022-09-16T18:49:18.831Z,43.06
2022-09-16T18:51:51.614Z,42.76
2022-09-16T18:54:25.007Z,42.90
2022-09-16T18:56:55.954Z,42.94
2022-09-16T18:59:29.915Z,43.01
2022-09-16T19:02:01.116Z,42.71
2022-09-16T19:04:31.594Z,42.85
2022-09-16T19:07:08.955Z,42.96
2022-09-16T19:09:40.419Z,42.92
2022-09-16T19:12:11.617Z,42.82
2022-09-16T19:14:39.965Z,42.70
2022-09-16T19:17:10.892Z,42.64
2022-09-16T19:19:41.804Z,42.33
2022-09-16T19:22:12.299Z,42.70
2022-09-16T19:24:43.987Z,42.22
2022-09-16T19:27:12.280Z,42.33
2022-09-16T19:29:41.201Z,42.32
2022-09-16T19:32:10.673Z,42.29
2022-09-16T19:34:39.210Z,42.38
2022-09-16T19:37:08.052Z,42.36
2022-09-16T19:39:36.869Z,42.05
2022-09-16T19:42:06.560Z,41.99
2022-09-16T19:44:36.655Z,42.34
2022-09-16T19:47:04.912Z,41.94
2022-09-16T19:49:34.503Z,42.27
2022-09-16T19:52:04.173Z,42.01
2022-09-16T19:54:34.061Z,41.84
2022-09-16T19:57:05.754Z,42.25
2022-09-16T19:59:35.433Z,41.76
2022-09-16T20:02:03.659Z,42.20
2022-09-16T20:04:32.106Z,42.00
2022-09-16T20:07:02.167Z,42.01
2022-09-16T20:09:30.387Z,41.70
2022-09-16T20:11:58.501Z,41.62
2022-09-16T20:14:33.848Z,41.67
2022-09-16T20:17:01.992Z,41.57
2022-09-16T20:19:30.236Z,41.67
2022-09-16T20:21:58.491Z,41.73
2022-09-16T20:24:28.142Z,41.56
2022-09-16T20:26:57.590Z,41.79
2022-09-16T20:29:26.244Z,41.73
2022-09-16T20:31:54.566Z,41.36
2022-09-16T20:34:24.266Z,41.49
2022-09-16T20:36:52.355Z,41.57
2022-09-16T20:39:20.513Z,41.85
2022-09-16T20:41:52.614Z,41.89
2022-09-16T20:44:20.601Z,41.84
2022-09-16T20:46:50.019Z,41.69
2022-09-16T20:49:20.842Z,41.62
2022-09-16T20:51:48.705Z,41.79
2022-09-16T20:54:17.185Z,41.76
2022-09-16T20:56:47.163Z,41.64
2022-09-16T20:59:17.909Z,41.79
2022-09-16T21:01:46.077Z,41.78
2022-09-16T21:04:15.698Z,41.73
2022-09-16T21:06:44.220Z,41.75
2022-09-16T21:09:14.151Z,41.54
2022-09-16T21:11:44.585Z,41.65
2022-09-16T21:14:15.217Z,41.47
2022-09-16T21:16:46.140Z,41.69
2022-09-16T21:19:15.034Z,41.58
2022-09-16T21:21:45.844Z,42.04
2022-09-16T21:24:14.327Z,41.70
2022-09-16T21:26:43.891Z,42.00
2022-09-16T21:29:13.465Z,42.24
2022-09-16T21:31:43.027Z,41.86
2022-09-16T21:34:15.046Z,42.12
2022-09-16T21:36:44.645Z,42.21
2022-09-16T21:39:13.776Z,41.78
2022-09-16T21:41:42.273Z,41.75
2022-09-16T21:44:10.435Z,41.70
2022-09-16T21:46:41.759Z,41.79
2022-09-16T21:49:16.981Z,42.01
2022-09-16T21:51:46.589Z,41.52
2022-09-16T21:54:19.679Z,41.86
2022-09-16T21:56:49.281Z,41.92
2022-09-16T21:59:17.653Z,41.90
2022-09-16T22:01:45.681Z,41.46
2022-09-16T22:04:16.413Z,41.66
2022-09-16T22:06:44.555Z,41.56
2022-09-16T22:09:14.001Z,41.50
2022-09-16T22:11:42.715Z,41.45
2022-09-16T22:14:12.389Z,41.36
2022-09-16T22:16:41.504Z,41.78
2022-09-16T22:19:11.592Z,41.71
2022-09-16T22:21:43.164Z,41.37
2022-09-16T22:24:13.654Z,41.34
2022-09-16T22:26:41.497Z,41.60
2022-09-16T22:29:09.697Z,41.60
2022-09-16T22:31:39.902Z,41.64
2022-09-16T22:34:08.769Z,41.79
2022-09-16T22:36:37.687Z,41.82
2022-09-16T22:39:08.168Z,41.60
2022-09-16T22:41:37.450Z,41.35
2022-09-16T22:44:05.676Z,41.70
2022-09-16T22:46:36.650Z,41.62
2022-09-16T22:49:05.345Z,41.33
2022-09-16T22:51:33.210Z,41.56
2022-09-16T22:54:01.140Z,41.76
2022-09-16T22:56:32.284Z,41.47
2022-09-16T22:59:03.078Z,41.50
2022-09-16T23:01:34.797Z,41.41
2022-09-16T23:04:04.469Z,41.29
2022-09-16T23:06:34.737Z,41.16
2022-09-16T23:09:03.297Z,41.56
2022-09-16T23:11:33.598Z,41.33
2022-09-16T23:14:04.190Z,41.19
2022-09-16T23:16:34.969Z,41.26
2022-09-16T23:19:05.669Z,41.37
2022-09-16T23:21:33.762Z,41.19
2022-09-16T23:24:03.381Z,41.22
2022-09-16T23:26:33.945Z,41.39
2022-09-16T23:29:05.481Z,41.46
2022-09-16T23:31:36.069Z,41.26
2022-09-16T23:34:07.634Z,41.49
2022-09-16T23:36:38.001Z,41.62
2022-09-16T23:39:07.294Z,41.35
2022-09-16T23:41:35.833Z,41.28
2022-09-16T23:44:05.607Z,41.47
2022-09-16T23:46:34.493Z,41.71
2022-09-16T23:49:02.846Z,41.75
2022-09-16T23:51:32.209Z,41.67
2022-09-16T23:54:01.236Z,41.60
2022-09-16T23:56:29.388Z,41.37
2022-09-16T23:59:00.645Z,41.54
